createdAt,value
2023-02-11T00:01:31.428Z,103169.81
2023-02-11T00:04:01.818Z,103164.81
2023-02-11T00:06:31.844Z,103171.06
2023-02-11T00:09:00.160Z,103190.34
2023-02-11T00:11:30.884Z,103181.63
2023-02-11T00:14:02.329Z,103177.28
2023-02-11T00:16:32.301Z,103160.81
2023-02-11T00:19:01.228Z,103160.81
2023-02-11T00:21:30.215Z,103164.22
2023-02-11T00:23:59.957Z,103160.81
2023-02-11T00:26:31.909Z,103144.22
2023-02-11T00:29:03.987Z,103138.09
2023-02-11T00:31:32.419Z,103119.75
2023-02-11T00:34:00.727Z,103141.56
2023-02-11T00:36:30.821Z,103131.91
2023-02-11T00:39:01.050Z,103137.03
2023-02-11T00:41:29.573Z,103125.66
2023-02-11T00:43:57.852Z,103124.75
2023-02-11T00:46:27.634Z,103129.97
2023-02-11T00:48:57.787Z,103139.59
2023-02-11T00:51:26.446Z,103137.03
2023-02-11T00:53:55.379Z,103149.16
2023-02-11T00:56:23.864Z,103156.16
2023-02-11T00:58:52.191Z,103157.06
2023-02-11T01:01:21.343Z,103158.03
2023-02-11T01:03:51.150Z,103163.34
2023-02-11T01:06:20.109Z,103145.06
2023-02-11T01:08:48.489Z,103152.88
2023-02-11T01:11:19.828Z,103144.97
2023-02-11T01:13:50.063Z,103153.63
2023-02-11T01:16:19.291Z,103153.78
2023-02-11T01:18:48.224Z,103143.34
2023-02-11T01:21:17.901Z,103146.78
2023-02-11T01:23:46.423Z,103145.84
2023-02-11T01:26:14.759Z,103137.03
2023-02-11T01:28:43.483Z,103140.50
2023-02-11T01:31:12.306Z,103128.97
2023-02-11T01:33:40.694Z,103139.28
2023-02-11T01:36:10.494Z,103130.47
2023-02-11T01:38:41.135Z,103137.34
2023-02-11T01:41:12.434Z,103132.94
2023-02-11T01:43:45.150Z,103130.34
2023-02-11T01:46:31.381Z,103131.22
2023-02-11T01:49:06.117Z,103113.03
2023-02-11T01:51:43.499Z,103117.38
2023-02-11T01:54:36.143Z,103125.25
2023-02-11T01:57:25.133Z,103123.47
2023-02-11T02:00:11.957Z,103119.06
2023-02-11T02:02:49.881Z,103127.88
2023-02-11T02:05:28.613Z,103108.72
2023-02-11T02:08:05.444Z,103120.94
2023-02-11T02:10:36.917Z,103114.00
2023-02-11T02:13:05.517Z,103104.53
2023-02-11T02:15:36.920Z,103102.75
2023-02-11T02:18:21.264Z,103104.53
2023-02-11T02:22:00.128Z,103094.91
2023-02-11T02:24:57.878Z,103085.28
2023-02-11T02:27:39.425Z,103084.47
2023-02-11T02:30:33.908Z,103090.53
2023-02-11T02:33:23.299Z,103075.66
2023-02-11T02:36:05.512Z,103070.53
2023-02-11T02:38:39.554Z,103094.09
2023-02-11T02:41:12.455Z,103072.38
2023-02-11T02:43:44.075Z,103072.28
2023-02-11T02:46:16.587Z,103082.75
2023-02-11T02:48:46.939Z,103085.34
2023-02-11T02:51:49.310Z,103078.44
2023-02-11T02:54:44.770Z,103073.22
2023-02-11T02:57:27.975Z,103080.22
2023-02-11T03:00:16.239Z,103078.44
2023-02-11T03:03:00.334Z,103075.00
2023-02-11T03:05:38.710Z,103082.00
2023-02-11T03:08:11.603Z,103060.22
2023-02-11T03:10:45.206Z,103056.81
2023-02-11T03:13:17.966Z,103051.56
2023-02-11T03:15:50.253Z,103058.66
2023-02-11T03:18:23.249Z,103057.81
2023-02-11T03:20:55.974Z,103063.13
2023-02-11T03:23:31.278Z,103061.41
2023-02-11T03:26:04.509Z,103055.38
2023-02-11T03:28:36.963Z,103065.13
2023-02-11T03:31:18.126Z,103066.09
2023-02-11T03:33:58.545Z,103065.28
2023-02-11T03:36:34.386Z,103052.28
2023-02-11T03:39:05.129Z,103058.44
2023-02-11T03:41:35.138Z,103054.19
2023-02-11T03:44:04.970Z,103058.59
2023-02-11T03:46:38.435Z,103062.19
2023-02-11T03:49:12.534Z,103055.31
2023-02-11T03:51:42.514Z,103052.72
2023-02-11T03:54:16.607Z,103050.22
2023-02-11T03:56:53.165Z,103048.59
2023-02-11T03:59:21.848Z,103056.41
2023-02-11T04:01:50.194Z,103051.19
2023-02-11T04:04:18.560Z,103058.28
2023-02-11T04:06:48.299Z,103060.97
2023-02-11T04:09:17.251Z,103065.31
2023-02-11T04:11:45.500Z,103066.19
2023-02-11T04:14:13.786Z,103061.06
2023-02-11T04:16:42.185Z,103057.53
2023-02-11T04:19:10.634Z,103060.22
2023-02-11T04:21:38.936Z,103067.25
2023-02-11T04:24:08.782Z,103064.69
2023-02-11T04:26:37.056Z,103070.81
2023-02-11T04:29:05.427Z,103058.66
2023-02-11T04:31:33.909Z,103054.41
2023-02-11T04:34:02.161Z,103045.72
2023-02-11T04:36:30.487Z,103044.88
2023-02-11T04:38:58.766Z,103050.19
2023-02-11T04:41:28.667Z,103058.13
2023-02-11T04:43:57.244Z,103068.66
2023-02-11T04:46:25.784Z,103062.66
2023-02-11T04:48:54.311Z,103061.84
2023-02-11T04:51:22.804Z,103068.03
2023-02-11T04:53:51.135Z,103062.03
2023-02-11T04:56:19.441Z,103067.34
2023-02-11T04:58:50.105Z,103070.78
2023-02-11T05:01:18.849Z,103063.78
2023-02-11T05:03:47.253Z,103066.38
2023-02-11T05:06:15.720Z,103067.34
2023-02-11T05:08:44.018Z,103062.13
2023-02-11T05:11:27.729Z,103069.97
2023-02-11T05:13:57.662Z,103080.50
2023-02-11T05:16:25.994Z,103070.09
2023-02-11T05:18:55.748Z,103071.06
2023-02-11T05:21:24.326Z,103057.19
2023-02-11T05:23:52.752Z,103062.53
2023-02-11T05:26:21.121Z,103060.91
2023-02-11T05:28:50.354Z,103073.13
2023-02-11T05:31:20.172Z,103064.47
2023-02-11T05:33:48.533Z,103064.59
2023-02-11T05:36:17.226Z,103051.47
2023-02-11T05:38:45.550Z,103060.25
2023-02-11T05:41:14.410Z,103055.97
2023-02-11T05:43:42.697Z,103048.84
2023-02-11T05:46:11.105Z,103061.03
2023-02-11T05:48:40.762Z,103059.25
2023-02-11T05:51:09.067Z,103075.69
2023-02-11T05:53:37.667Z,103065.97
2023-02-11T05:56:07.290Z,103071.19
2023-02-11T05:58:35.649Z,103066.81
2023-02-11T06:01:04.033Z,103065.03
2023-02-11T06:03:32.324Z,103058.84
2023-02-11T06:06:01.919Z,103053.44
2023-02-11T06:08:30.186Z,103061.25
2023-02-11T06:10:58.523Z,103051.50
2023-02-11T06:13:26.949Z,103057.50
2023-02-11T06:15:59.113Z,103054.75
2023-02-11T06:18:27.497Z,103053.84
2023-02-11T06:20:56.253Z,103045.13
2023-02-11T06:23:27.495Z,103046.81
2023-02-11T06:26:02.749Z,103047.59
2023-02-11T06:28:32.348Z,103036.03
2023-02-11T06:31:06.739Z,103053.44
2023-02-11T06:33:35.930Z,103051.63
2023-02-11T06:36:06.643Z,103059.47
2023-02-11T06:38:36.276Z,103058.50
2023-02-11T06:41:04.803Z,103062.75
2023-02-11T06:43:33.205Z,103069.66
2023-02-11T06:46:01.561Z,103062.63
2023-02-11T06:48:29.812Z,103062.53
2023-02-11T06:50:58.339Z,103063.25
2023-02-11T06:53:26.701Z,103079.03
2023-02-11T06:55:56.424Z,103082.53
2023-02-11T06:58:24.917Z,103080.81
2023-02-11T07:00:53.778Z,103092.09
2023-02-11T07:03:22.148Z,103081.66
2023-02-11T07:05:50.861Z,103087.69
2023-02-11T07:08:19.467Z,103096.34
2023-02-11T07:10:47.710Z,103088.44
2023-02-11T07:13:17.388Z,103098.97
2023-02-11T07:15:45.743Z,103085.03
2023-02-11T07:18:14.807Z,103082.31
2023-02-11T07:20:43.610Z,103076.31
2023-02-11T07:23:12.037Z,103087.63
2023-02-11T07:25:40.388Z,103078.00
2023-02-11T07:28:08.833Z,103082.31
2023-02-11T07:30:38.494Z,103086.66
2023-02-11T07:33:06.795Z,103081.44
2023-02-11T07:35:35.143Z,103078.91
2023-02-11T07:38:03.516Z,103081.66
2023-02-11T07:40:32.350Z,103087.94
2023-02-11T07:43:02.910Z,103084.63
2023-02-11T07:45:31.209Z,103076.03
2023-02-11T07:48:00.929Z,103087.41
2023-02-11T07:50:29.292Z,103083.16
2023-02-11T07:52:57.534Z,103074.56
2023-02-11T07:55:25.992Z,103084.25
2023-02-11T07:57:54.480Z,103080.00
2023-02-11T08:00:23.199Z,103083.56
2023-02-11T08:02:51.786Z,103089.81
2023-02-11T08:05:21.516Z,103101.25
2023-02-11T08:07:53.204Z,103101.41
2023-02-11T08:10:21.905Z,103102.34
2023-02-11T08:12:50.263Z,103104.22
2023-02-11T08:15:18.816Z,103110.47
2023-02-11T08:17:47.255Z,103112.34
2023-02-11T08:20:15.607Z,103113.47
2023-02-11T08:22:45.457Z,103117.94
2023-02-11T08:25:13.711Z,103119.78
2023-02-11T08:27:41.978Z,103124.34
2023-02-11T08:30:12.243Z,103122.69
2023-02-11T08:32:40.626Z,103133.28
2023-02-11T08:35:12.432Z,103129.84
2023-02-11T08:37:40.816Z,103139.50
2023-02-11T08:40:11.579Z,103146.66
2023-02-11T08:42:40.153Z,103150.28
2023-02-11T08:45:10.485Z,103152.84
2023-02-11T08:47:39.166Z,103163.53
2023-02-11T08:50:08.661Z,103165.38
2023-02-11T08:52:38.182Z,103159.38
2023-02-11T08:55:07.701Z,103163.09
2023-02-11T08:57:37.629Z,103163.31
2023-02-11T09:00:07.782Z,103173.22
2023-02-11T09:02:36.146Z,103174.19
2023-02-11T09:05:04.841Z,103180.38
2023-02-11T09:07:33.311Z,103182.25
2023-02-11T09:10:02.145Z,103191.06
2023-02-11T09:12:30.500Z,103199.03
2023-02-11T09:15:00.666Z,103207.06
2023-02-11T09:17:28.935Z,103208.03
2023-02-11T09:19:57.523Z,103213.47
2023-02-11T09:22:25.876Z,103207.66
2023-02-11T09:24:55.111Z,103222.72
2023-02-11T09:27:28.067Z,103214.97
2023-02-11T09:29:56.359Z,103220.34
2023-02-11T09:32:26.109Z,103223.97
2023-02-11T09:34:55.138Z,103231.22
2023-02-11T09:37:23.622Z,103227.19
2023-02-11T09:39:52.133Z,103228.28
2023-02-11T09:42:44.889Z,103230.22
2023-02-11T09:45:19.999Z,103238.44
2023-02-11T09:47:55.475Z,103227.19
2023-02-11T09:50:32.248Z,103230.81
2023-02-11T09:53:04.422Z,103236.28
2023-02-11T09:55:39.606Z,103251.31
2023-02-11T09:58:15.136Z,103259.31
2023-02-11T10:00:49.853Z,103270.81
2023-02-11T10:04:06.346Z,103275.28
2023-02-11T10:06:44.864Z,103284.38
2023-02-11T10:09:56.676Z,103279.25
2023-02-11T10:12:48.847Z,103274.16
2023-02-11T10:15:28.216Z,103275.13
2023-02-11T10:18:18.028Z,103275.13
2023-02-11T10:21:07.911Z,103285.72
2023-02-11T10:23:41.829Z,103281.44
2023-02-11T10:26:14.964Z,103289.59
2023-02-11T10:28:47.640Z,103296.88
2023-02-11T10:31:22.191Z,103296.03
2023-02-11T10:33:57.753Z,103292.59
2023-02-11T10:36:32.422Z,103284.91
2023-02-11T10:39:01.726Z,103279.00
2023-02-11T10:41:35.583Z,103279.19
2023-02-11T10:44:04.629Z,103288.22
2023-02-11T10:46:37.766Z,103283.22
2023-02-11T10:49:06.464Z,103272.03
2023-02-11T10:51:37.715Z,103282.81
2023-02-11T10:54:21.347Z,103270.81
2023-02-11T10:56:52.196Z,103264.16
2023-02-11T10:59:28.896Z,103268.81
2023-02-11T11:02:01.438Z,103276.06
2023-02-11T11:04:45.286Z,103287.59
2023-02-11T11:07:23.356Z,103279.84
2023-02-11T11:09:56.813Z,103293.97
2023-02-11T11:12:36.669Z,103283.59
2023-02-11T11:15:19.959Z,103300.34
2023-02-11T11:17:48.921Z,103301.25
2023-02-11T11:20:29.219Z,103309.13
2023-02-11T11:23:17.511Z,103308.19
2023-02-11T11:25:47.772Z,103314.31
2023-02-11T11:28:25.242Z,103315.19
2023-02-11T11:30:55.519Z,103320.53
2023-02-11T11:33:29.464Z,103325.69
2023-02-11T11:36:04.845Z,103314.31
2023-02-11T11:38:38.050Z,103314.50
2023-02-11T11:41:25.407Z,103315.50
2023-02-11T11:44:24.748Z,103320.81
2023-02-11T11:47:27.625Z,103316.34
2023-02-11T11:50:24.727Z,103328.56
2023-02-11T11:53:01.542Z,103327.88
2023-02-11T11:55:40.011Z,103320.94
2023-02-11T11:58:16.410Z,103322.72
2023-02-11T12:00:54.880Z,103314.03
2023-02-11T12:04:04.541Z,103320.16
2023-02-11T12:06:42.738Z,103322.72
2023-02-11T12:09:22.107Z,103305.03
2023-02-11T12:12:13.883Z,103315.69
2023-02-11T12:14:56.285Z,103312.34
2023-02-11T12:17:45.801Z,103308.78
2023-02-11T12:20:26.154Z,103317.34
2023-02-11T12:23:15.976Z,103319.84
2023-02-11T12:25:53.875Z,103322.63
2023-02-11T12:28:38.492Z,103325.16
2023-02-11T12:31:31.031Z,103327.78
2023-02-11T12:34:32.149Z,103333.22
2023-02-11T12:37:10.404Z,103328.16
2023-02-11T12:39:51.506Z,103329.97
2023-02-11T12:43:11.083Z,103328.31
2023-02-11T12:46:11.720Z,103335.25
2023-02-11T12:49:16.155Z,103328.22
2023-02-11T12:52:01.508Z,103329.88
2023-02-11T12:54:34.616Z,103333.47
2023-02-11T12:57:11.403Z,103329.97
2023-02-11T12:59:50.928Z,103337.84
2023-02-11T13:02:31.415Z,103334.28
2023-02-11T13:05:06.491Z,103327.25
2023-02-11T13:07:40.525Z,103325.50
2023-02-11T13:10:25.818Z,103315.91
2023-02-11T13:13:14.440Z,103331.66
2023-02-11T13:15:48.456Z,103327.16
2023-02-11T13:18:31.647Z,103323.59
2023-02-11T13:21:17.789Z,103313.88
2023-02-11T13:23:53.442Z,103324.28
2023-02-11T13:26:27.139Z,103326.84
2023-02-11T13:29:07.823Z,103327.72
2023-02-11T13:31:36.287Z,103332.97
2023-02-11T13:34:26.995Z,103338.97
2023-02-11T13:36:59.837Z,103343.25
2023-02-11T13:39:28.209Z,103340.56
2023-02-11T13:42:05.342Z,103330.00
2023-02-11T13:44:36.204Z,103342.31
2023-02-11T13:47:06.652Z,103337.00
2023-02-11T13:49:41.513Z,103332.63
2023-02-11T13:52:24.722Z,103347.56
2023-02-11T13:54:56.856Z,103339.53
2023-02-11T13:57:33.094Z,103335.25
2023-02-11T14:00:03.120Z,103335.31
2023-02-11T14:02:52.296Z,103326.56
2023-02-11T14:05:49.285Z,103326.56
2023-02-11T14:08:39.769Z,103336.22
2023-02-11T14:11:14.745Z,103336.34
2023-02-11T14:14:21.924Z,103342.50
2023-02-11T14:17:31.992Z,103343.25
2023-02-11T14:20:04.213Z,103345.03
2023-02-11T14:22:46.996Z,103340.56
2023-02-11T14:25:23.895Z,103343.13
2023-02-11T14:27:57.951Z,103341.34
2023-02-11T14:30:44.386Z,103350.72
2023-02-11T14:33:50.614Z,103349.69
2023-02-11T14:36:55.730Z,103352.38
2023-02-11T14:39:40.342Z,103363.13
2023-02-11T14:42:20.821Z,103352.91
2023-02-11T14:44:51.591Z,103346.97
2023-02-11T14:47:24.258Z,103353.88
2023-02-11T14:49:52.718Z,103346.72
2023-02-11T14:52:29.891Z,103361.66
2023-02-11T14:55:11.514Z,103358.34
2023-02-11T14:57:39.826Z,103361.94
2023-02-11T15:00:23.556Z,103364.38
2023-02-11T15:02:51.995Z,103367.78
2023-02-11T15:05:27.302Z,103370.41
2023-02-11T15:07:58.958Z,103385.13
2023-02-11T15:10:34.321Z,103383.09
2023-02-11T15:13:04.596Z,103390.03
2023-02-11T15:15:36.933Z,103388.25
2023-02-11T15:18:06.767Z,103383.78
2023-02-11T15:20:36.008Z,103382.84
2023-02-11T15:23:08.472Z,103383.69
2023-02-11T15:25:45.738Z,103375.63
2023-02-11T15:28:24.408Z,103381.66
2023-02-11T15:31:01.200Z,103379.81
2023-02-11T15:33:32.057Z,103391.03
2023-02-11T15:36:01.892Z,103398.81
2023-02-11T15:38:30.907Z,103391.72
2023-02-11T15:41:03.733Z,103396.88
2023-02-11T15:43:47.158Z,103401.00
2023-02-11T15:46:18.641Z,103407.00
2023-02-11T15:48:50.399Z,103413.09
2023-02-11T15:51:23.181Z,103404.28
2023-02-11T15:53:56.784Z,103398.91
2023-02-11T15:56:30.882Z,103400.56
2023-02-11T15:59:02.291Z,103405.75
2023-02-11T16:01:34.059Z,103397.75
2023-02-11T16:04:03.633Z,103407.28
2023-02-11T16:06:44.435Z,103405.44
2023-02-11T16:09:32.820Z,103401.84
2023-02-11T16:12:07.580Z,103409.63
2023-02-11T16:14:39.257Z,103399.91
2023-02-11T16:17:10.983Z,103410.28
2023-02-11T16:19:45.621Z,103404.00
2023-02-11T16:22:19.624Z,103415.25
2023-02-11T16:24:50.082Z,103415.09
2023-02-11T16:27:25.470Z,103409.72
2023-02-11T16:29:53.953Z,103419.47
2023-02-11T16:32:25.485Z,103426.13
2023-02-11T16:34:57.922Z,103430.41
2023-02-11T16:37:26.786Z,103426.72
2023-02-11T16:39:55.754Z,103427.41
2023-02-11T16:42:25.665Z,103425.47
2023-02-11T16:44:54.042Z,103437.59
2023-02-11T16:47:26.477Z,103428.78
2023-02-11T16:49:55.502Z,103431.00
2023-02-11T16:52:24.578Z,103448.31
2023-02-11T16:54:53.538Z,103461.38
2023-02-11T16:57:29.670Z,103461.22
2023-02-11T16:59:59.287Z,103463.72
2023-02-11T17:02:30.724Z,103467.13
2023-02-11T17:05:01.911Z,103463.53
2023-02-11T17:07:30.866Z,103475.72
2023-02-11T17:09:59.794Z,103475.56
2023-02-11T17:12:29.460Z,103476.41
2023-02-11T17:14:57.920Z,103485.91
2023-02-11T17:17:26.252Z,103480.69
2023-02-11T17:19:54.546Z,103482.34
2023-02-11T17:22:22.785Z,103483.13
2023-02-11T17:24:51.425Z,103486.59
2023-02-11T17:27:19.764Z,103485.72
2023-02-11T17:29:49.443Z,103485.63
2023-02-11T17:32:18.045Z,103495.16
2023-02-11T17:34:46.514Z,103498.63
2023-02-11T17:37:14.737Z,103493.50
2023-02-11T17:39:44.685Z,103489.84
2023-02-11T17:42:14.600Z,103491.56
2023-02-11T17:44:44.716Z,103493.22
2023-02-11T17:47:14.478Z,103499.28
2023-02-11T17:49:43.455Z,103498.31
2023-02-11T17:52:11.960Z,103501.78
2023-02-11T17:54:40.688Z,103507.88
2023-02-11T17:57:08.983Z,103513.88
2023-02-11T17:59:37.697Z,103512.91
2023-02-11T18:02:07.230Z,103520.69
2023-02-11T18:04:37.309Z,103517.09
2023-02-11T18:07:05.671Z,103522.34
2023-02-11T18:09:39.051Z,103527.44
2023-02-11T18:12:08.548Z,103536.13
2023-02-11T18:14:39.023Z,103528.19
2023-02-11T18:17:07.860Z,103531.50
2023-02-11T18:19:38.226Z,103536.56
2023-02-11T18:22:06.761Z,103535.56
2023-02-11T18:24:35.071Z,103540.66
2023-02-11T18:27:03.623Z,103536.91
2023-02-11T18:29:32.060Z,103539.13
2023-02-11T18:32:00.837Z,103544.81
2023-02-11T18:34:29.388Z,103537.19
2023-02-11T18:36:59.372Z,103533.91
2023-02-11T18:39:27.715Z,103544.69
2023-02-11T18:41:58.960Z,103540.63
2023-02-11T18:44:27.461Z,103549.88
2023-02-11T18:46:56.124Z,103544.31
2023-02-11T18:49:24.549Z,103547.69
2023-02-11T18:51:53.293Z,103545.81
2023-02-11T18:54:23.133Z,103547.22
2023-02-11T18:56:51.614Z,103542.31
2023-02-11T18:59:19.960Z,103548.72
2023-02-11T19:01:48.481Z,103549.06
2023-02-11T19:04:20.106Z,103551.19
2023-02-11T19:06:50.387Z,103553.38
2023-02-11T19:09:20.493Z,103546.91
2023-02-11T19:11:50.906Z,103558.84
2023-02-11T19:14:24.538Z,103550.66
2023-02-11T19:16:55.263Z,103557.56
2023-02-11T19:19:26.987Z,103560.16
2023-02-11T19:21:56.094Z,103564.66
2023-02-11T19:24:28.710Z,103573.53
2023-02-11T19:27:02.092Z,103581.56
2023-02-11T19:29:32.148Z,103580.91
2023-02-11T19:32:00.663Z,103589.97
2023-02-11T19:34:29.434Z,103585.03
2023-02-11T19:36:59.894Z,103585.03
2023-02-11T19:39:28.605Z,103591.16
2023-02-11T19:41:58.525Z,103594.66
2023-02-11T19:44:27.037Z,103592.03
2023-02-11T19:46:55.534Z,103600.78
2023-02-11T19:49:25.864Z,103598.91
2023-02-11T19:51:55.569Z,103609.31
2023-02-11T19:54:24.758Z,103614.59
2023-02-11T19:56:53.517Z,103621.69
2023-02-11T19:59:23.389Z,103623.59
2023-02-11T20:01:53.156Z,103628.84
2023-02-11T20:04:21.621Z,103634.97
2023-02-11T20:06:49.965Z,103623.59
2023-02-11T20:09:18.292Z,103628.00
2023-02-11T20:11:46.794Z,103642.88
2023-02-11T20:14:15.823Z,103641.00
2023-02-11T20:16:49.607Z,103644.53
2023-02-11T20:19:20.048Z,103650.56
2023-02-11T20:21:52.217Z,103652.38
2023-02-11T20:24:21.760Z,103647.06
2023-02-11T20:26:55.269Z,103653.91
2023-02-11T20:29:24.893Z,103650.31
2023-02-11T20:31:55.443Z,103643.28
2023-02-11T20:34:25.233Z,103643.28
2023-02-11T20:36:54.181Z,103638.88
2023-02-11T20:39:24.154Z,103640.59
2023-02-11T20:41:53.865Z,103651.03
2023-02-11T20:44:22.898Z,103649.22
2023-02-11T20:46:54.923Z,103645.72
2023-02-11T20:49:27.164Z,103643.03
2023-02-11T20:51:56.816Z,103645.66
2023-02-11T20:54:26.206Z,103643.84
2023-02-11T20:56:56.877Z,103650.91
2023-02-11T20:59:25.696Z,103657.81
2023-02-11T21:01:57.462Z,103657.91
2023-02-11T21:04:28.118Z,103661.41
2023-02-11T21:06:59.043Z,103663.97
2023-02-11T21:09:30.847Z,103658.63
2023-02-11T21:11:59.438Z,103664.75
2023-02-11T21:14:28.355Z,103655.94
2023-02-11T21:16:58.644Z,103656.66
2023-02-11T21:19:27.193Z,103662.63
2023-02-11T21:21:57.316Z,103666.88
2023-02-11T21:24:25.874Z,103665.88
2023-02-11T21:26:54.131Z,103667.72
2023-02-11T21:29:22.697Z,103668.41
2023-02-11T21:31:51.491Z,103667.50
2023-02-11T21:34:21.916Z,103681.41
2023-02-11T21:36:51.339Z,103677.88
2023-02-11T21:39:20.472Z,103686.44
2023-02-11T21:41:48.900Z,103687.38
2023-02-11T21:44:17.286Z,103702.97
2023-02-11T21:46:45.899Z,103706.31
2023-02-11T21:49:14.578Z,103708.03
2023-02-11T21:51:44.252Z,103713.25
2023-02-11T21:54:13.046Z,103708.84
2023-02-11T21:56:41.538Z,103714.94
2023-02-11T21:59:13.154Z,103705.22
2023-02-11T22:01:41.518Z,103709.47
2023-02-11T22:04:10.879Z,103705.88
2023-02-11T22:06:39.615Z,103709.19
2023-02-11T22:09:11.840Z,103724.00
2023-02-11T22:11:40.344Z,103724.81
2023-02-11T22:14:09.419Z,103719.41
2023-02-11T22:16:38.212Z,103724.56
2023-02-11T22:19:07.672Z,103726.25
2023-02-11T22:21:36.373Z,103732.31
2023-02-11T22:24:05.367Z,103733.09
2023-02-11T22:26:35.781Z,103735.72
2023-02-11T22:29:04.182Z,103739.94
2023-02-11T22:31:35.311Z,103735.44
2023-02-11T22:34:05.733Z,103738.97
2023-02-11T22:36:36.815Z,103744.22
2023-02-11T22:39:08.421Z,103739.78
2023-02-11T22:41:39.297Z,103740.59
2023-02-11T22:44:07.842Z,103744.00
2023-02-11T22:46:37.987Z,103737.00
2023-02-11T22:49:07.799Z,103735.19
2023-02-11T22:51:36.648Z,103736.91
2023-02-11T22:54:08.025Z,103743.03
2023-02-11T22:56:37.925Z,103743.03
2023-02-11T22:59:09.093Z,103735.19
2023-02-11T23:01:37.538Z,103741.41
2023-02-11T23:04:08.643Z,103749.25
2023-02-11T23:06:37.362Z,103746.63
2023-02-11T23:09:06.503Z,103743.13
2023-02-11T23:11:35.660Z,103749.25
2023-02-11T23:14:06.324Z,103751.78
2023-02-11T23:16:36.111Z,103755.28
2023-02-11T23:19:08.330Z,103750.84
2023-02-11T23:21:39.909Z,103749.06
2023-02-11T23:24:11.831Z,103749.88
2023-02-11T23:26:41.941Z,103752.47
2023-02-11T23:29:12.857Z,103758.53
2023-02-11T23:31:45.987Z,103761.88
2023-02-11T23:34:17.242Z,103760.97
2023-02-11T23:36:45.927Z,103764.59
2023-02-11T23:39:17.163Z,103758.25
2023-02-11T23:41:45.934Z,103763.50
2023-02-11T23:44:15.613Z,103769.59
2023-02-11T23:46:43.991Z,103772.13
2023-02-11T23:49:12.337Z,103776.44
2023-02-11T23:51:40.788Z,103771.16
2023-02-11T23:54:09.132Z,103766.63
2023-02-11T23:56:39.059Z,103764.00
2023-02-11T23:59:07.909Z,103767.44
